createdAt,value
2023-12-18T00:02:26.584Z,4.00
2023-12-18T00:04:54.752Z,3.90
2023-12-18T00:07:23.835Z,3.90
2023-12-18T00:09:51.825Z,3.90
2023-12-18T00:12:21.170Z,3.90
2023-12-18T00:14:49.106Z,3.90
2023-12-18T00:17:17.590Z,3.90
2023-12-18T00:19:45.583Z,3.90
2023-12-18T00:22:13.693Z,3.90
2023-12-18T00:24:41.949Z,3.90
2023-12-18T00:27:12.117Z,3.90
2023-12-18T00:29:42.551Z,3.80
2023-12-18T00:32:10.519Z,3.80
2023-12-18T00:34:41.741Z,3.80
2023-12-18T00:37:10.087Z,3.90
2023-12-18T00:39:39.689Z,3.80
2023-12-18T00:42:08.265Z,3.80
2023-12-18T00:44:36.292Z,3.80
2023-12-18T00:47:06.106Z,3.80
2023-12-18T00:49:34.354Z,3.70
2023-12-18T00:52:03.364Z,3.80
2023-12-18T00:54:31.543Z,3.70
2023-12-18T00:56:59.940Z,3.80
2023-12-18T00:59:28.246Z,3.80
2023-12-18T01:01:59.942Z,3.80
2023-12-18T01:04:29.398Z,3.80
2023-12-18T01:06:57.693Z,3.80
2023-12-18T01:09:25.649Z,3.80
2023-12-18T01:11:53.890Z,3.80
2023-12-18T01:14:21.817Z,3.90
2023-12-18T01:16:49.792Z,3.80
2023-12-18T01:19:19.310Z,3.80
2023-12-18T01:21:48.875Z,3.90
2023-12-18T01:24:17.167Z,3.90
2023-12-18T01:26:45.064Z,3.90
2023-12-18T01:29:13.280Z,3.90
2023-12-18T01:31:41.648Z,3.90
2023-12-18T01:34:09.950Z,3.90
2023-12-18T01:36:38.228Z,3.80
2023-12-18T01:39:07.744Z,3.80
2023-12-18T01:41:35.979Z,3.90
2023-12-18T01:44:06.067Z,3.90
2023-12-18T01:46:37.394Z,3.90
2023-12-18T01:49:05.767Z,3.90
2023-12-18T01:51:34.051Z,3.90
2023-12-18T01:54:02.145Z,4.00
2023-12-18T01:56:32.782Z,3.90
2023-12-18T01:59:01.837Z,4.00
2023-12-18T02:01:31.150Z,3.90
2023-12-18T02:04:03.568Z,4.00
2023-12-18T02:06:31.864Z,4.00
2023-12-18T02:08:59.945Z,4.00
2023-12-18T02:11:28.541Z,4.00
2023-12-18T02:13:58.600Z,4.00
2023-12-18T02:16:26.751Z,4.00
2023-12-18T02:18:55.841Z,4.00
2023-12-18T02:21:24.126Z,4.00
2023-12-18T02:23:53.820Z,4.00
2023-12-18T02:26:22.187Z,4.00
2023-12-18T02:28:50.175Z,4.00
2023-12-18T02:31:19.402Z,4.00
2023-12-18T02:33:51.424Z,4.00
2023-12-18T02:36:19.622Z,4.00
2023-12-18T02:38:48.298Z,4.00
2023-12-18T02:41:17.539Z,4.00
2023-12-18T02:43:45.460Z,4.00
2023-12-18T02:46:13.384Z,4.00
2023-12-18T02:48:41.596Z,4.00
2023-12-18T02:51:09.789Z,4.00
2023-12-18T02:53:38.225Z,4.00
2023-12-18T02:56:07.425Z,4.00
2023-12-18T02:58:36.739Z,4.00
2023-12-18T03:01:05.793Z,3.90
2023-12-18T03:03:33.796Z,4.00
2023-12-18T03:06:00.813Z,3.90
2023-12-18T03:08:28.709Z,3.90
2023-12-18T03:10:57.132Z,3.90
2023-12-18T03:13:25.156Z,3.90
2023-12-18T03:15:54.840Z,3.90
2023-12-18T03:18:22.852Z,3.90
2023-12-18T03:20:51.380Z,3.90
2023-12-18T03:23:19.357Z,3.90
2023-12-18T03:25:47.450Z,3.90
2023-12-18T03:28:17.409Z,3.90
2023-12-18T03:30:45.609Z,3.90
2023-12-18T03:33:15.173Z,3.90
2023-12-18T03:35:43.465Z,3.90
2023-12-18T03:38:13.816Z,3.90
2023-12-18T03:40:41.980Z,3.90
2023-12-18T03:43:09.961Z,3.90
2023-12-18T03:45:38.353Z,3.90
2023-12-18T03:48:07.318Z,3.90
2023-12-18T03:50:36.661Z,3.90
2023-12-18T03:53:05.289Z,3.90
2023-12-18T03:55:35.575Z,3.90
2023-12-18T03:58:03.758Z,3.90
2023-12-18T04:00:31.792Z,3.90
2023-12-18T04:03:00.319Z,3.90
2023-12-18T04:05:28.252Z,3.90
2023-12-18T04:07:57.809Z,3.90
2023-12-18T04:10:25.764Z,3.90
2023-12-18T04:12:53.714Z,3.90
2023-12-18T04:15:23.360Z,3.90
2023-12-18T04:17:51.788Z,3.90
2023-12-18T04:20:20.289Z,3.90
2023-12-18T04:22:49.742Z,3.90
2023-12-18T04:25:19.440Z,3.90
2023-12-18T04:27:47.470Z,3.90
2023-12-18T04:30:15.705Z,3.90
2023-12-18T04:32:43.741Z,3.80
2023-12-18T04:35:11.907Z,3.80
2023-12-18T04:37:40.632Z,3.80
2023-12-18T04:40:10.283Z,3.80
2023-12-18T04:42:42.905Z,3.80
2023-12-18T04:45:12.126Z,3.80
2023-12-18T04:47:40.593Z,3.70
2023-12-18T04:50:09.353Z,3.80
2023-12-18T04:52:37.493Z,3.80
2023-12-18T04:55:06.322Z,3.80
2023-12-18T04:57:35.044Z,3.70
2023-12-18T05:00:05.115Z,3.80
2023-12-18T05:02:33.301Z,3.80
2023-12-18T05:05:01.393Z,3.80
2023-12-18T05:07:29.629Z,3.80
2023-12-18T05:09:57.595Z,3.80
2023-12-18T05:12:25.882Z,3.80
2023-12-18T05:14:54.036Z,3.80
2023-12-18T05:17:26.052Z,3.80
2023-12-18T05:19:54.083Z,3.80
2023-12-18T05:22:22.173Z,3.70
2023-12-18T05:24:50.422Z,3.70
2023-12-18T05:27:19.125Z,3.70
2023-12-18T05:29:47.344Z,3.70
2023-12-18T05:32:18.545Z,3.70
2023-12-18T05:34:49.836Z,3.70
2023-12-18T05:37:18.271Z,3.70
2023-12-18T05:39:46.553Z,3.70
2023-12-18T05:42:16.033Z,3.70
2023-12-18T05:44:44.021Z,3.70
2023-12-18T05:47:12.209Z,3.70
2023-12-18T05:49:40.841Z,3.70
2023-12-18T05:52:12.533Z,3.80
2023-12-18T05:54:41.402Z,3.80
2023-12-18T05:57:10.135Z,3.80
2023-12-18T05:59:38.106Z,3.80
2023-12-18T06:02:06.127Z,3.70
2023-12-18T06:04:34.370Z,3.80
2023-12-18T06:07:03.414Z,3.80
2023-12-18T06:09:33.050Z,3.80
2023-12-18T06:12:01.463Z,3.80
2023-12-18T06:14:29.357Z,3.80
2023-12-18T06:16:57.508Z,3.80
2023-12-18T06:19:25.642Z,3.80
2023-12-18T06:21:53.631Z,3.80
2023-12-18T06:24:21.600Z,3.80
2023-12-18T06:26:52.717Z,3.70
2023-12-18T06:29:20.642Z,3.70
2023-12-18T06:31:49.048Z,3.70
2023-12-18T06:34:17.676Z,3.70
2023-12-18T06:36:48.218Z,3.60
2023-12-18T06:39:19.065Z,3.60
2023-12-18T06:41:46.967Z,3.60
2023-12-18T06:44:16.353Z,3.70
2023-12-18T06:46:45.608Z,3.70
2023-12-18T06:49:14.601Z,3.70
2023-12-18T06:51:42.617Z,3.70
2023-12-18T06:54:10.591Z,3.60
2023-12-18T06:56:39.152Z,3.60
2023-12-18T06:59:07.373Z,3.60
2023-12-18T07:01:37.790Z,3.60
2023-12-18T07:04:06.486Z,3.60
2023-12-18T07:06:35.074Z,3.60
2023-12-18T07:09:03.481Z,3.60
2023-12-18T07:11:32.576Z,3.50
2023-12-18T07:14:00.569Z,3.60
2023-12-18T07:16:28.590Z,3.60
2023-12-18T07:18:58.482Z,3.60
2023-12-18T07:21:26.636Z,3.50
2023-12-18T07:23:56.079Z,3.60
2023-12-18T07:26:24.365Z,3.50
2023-12-18T07:28:52.345Z,3.50
2023-12-18T07:31:20.870Z,3.50
2023-12-18T07:33:49.099Z,3.50
2023-12-18T07:36:18.886Z,3.60
2023-12-18T07:38:48.058Z,3.60
2023-12-18T07:41:16.188Z,3.60
2023-12-18T07:43:44.333Z,3.60
2023-12-18T07:46:19.959Z,3.60
2023-12-18T07:48:49.218Z,3.60
2023-12-18T07:51:18.970Z,3.60
2023-12-18T07:53:47.392Z,3.60
2023-12-18T07:56:16.294Z,3.60
2023-12-18T07:58:44.741Z,3.60
2023-12-18T08:01:12.736Z,3.60
2023-12-18T08:03:40.752Z,3.60
2023-12-18T08:06:09.060Z,3.70
2023-12-18T08:08:41.112Z,3.70
2023-12-18T08:11:09.091Z,3.70
2023-12-18T08:13:40.166Z,3.70
2023-12-18T08:16:08.986Z,3.70
2023-12-18T08:18:37.349Z,3.80
2023-12-18T08:21:06.234Z,3.80
2023-12-18T08:23:34.183Z,3.80
2023-12-18T08:26:06.942Z,3.80
2023-12-18T08:28:36.191Z,3.80
2023-12-18T08:31:04.185Z,3.90
2023-12-18T08:33:32.242Z,3.90
2023-12-18T08:36:00.310Z,3.90
2023-12-18T08:38:30.606Z,4.00
2023-12-18T08:40:58.863Z,3.90
2023-12-18T08:43:28.600Z,4.00
2023-12-18T08:45:56.964Z,4.00
2023-12-18T08:48:29.843Z,4.00
2023-12-18T08:50:58.165Z,4.00
2023-12-18T08:53:26.063Z,4.00
2023-12-18T08:55:54.228Z,4.00
2023-12-18T08:58:23.282Z,4.10
2023-12-18T09:00:54.420Z,4.10
2023-12-18T09:03:22.867Z,4.10
2023-12-18T09:05:53.494Z,4.10
2023-12-18T09:08:21.966Z,4.20
2023-12-18T09:10:50.366Z,4.20
2023-12-18T09:13:18.322Z,4.30
2023-12-18T09:15:46.455Z,4.30
2023-12-18T09:18:18.324Z,4.30
2023-12-18T09:20:46.390Z,4.40
2023-12-18T09:23:14.390Z,4.40
2023-12-18T09:25:42.952Z,4.50
2023-12-18T09:28:11.212Z,4.50
2023-12-18T09:30:40.264Z,4.50
2023-12-18T09:33:11.057Z,4.60
2023-12-18T09:35:41.295Z,4.60
2023-12-18T09:38:09.428Z,4.70
2023-12-18T09:40:37.626Z,4.70
2023-12-18T09:43:06.417Z,4.70
2023-12-18T09:45:34.613Z,4.70
2023-12-18T09:48:02.649Z,4.70
2023-12-18T09:50:31.254Z,4.80
2023-12-18T09:53:04.324Z,4.80
2023-12-18T09:55:33.832Z,4.80
2023-12-18T09:58:03.808Z,4.80
2023-12-18T10:00:32.355Z,4.90
2023-12-18T10:03:02.906Z,4.90
2023-12-18T10:05:33.630Z,4.90
2023-12-18T10:08:03.985Z,4.90
2023-12-18T10:10:33.634Z,4.90
2023-12-18T10:13:04.591Z,4.90
2023-12-18T10:15:35.681Z,4.90
2023-12-18T10:18:04.500Z,5.00
2023-12-18T10:20:33.025Z,5.00
2023-12-18T10:23:04.245Z,5.00
2023-12-18T10:25:32.394Z,5.10
2023-12-18T10:28:00.746Z,5.00
2023-12-18T10:30:30.917Z,5.10
2023-12-18T10:33:01.081Z,5.10
2023-12-18T10:35:30.446Z,5.10
2023-12-18T10:37:58.764Z,5.10
2023-12-18T10:40:29.420Z,5.10
2023-12-18T10:43:07.182Z,5.10
2023-12-18T10:45:36.543Z,5.20
2023-12-18T10:48:06.728Z,5.20
2023-12-18T10:50:36.672Z,5.20
2023-12-18T10:53:08.364Z,5.20
2023-12-18T10:55:39.335Z,5.30
2023-12-18T10:58:08.022Z,5.30
2023-12-18T11:00:38.547Z,5.30
2023-12-18T11:03:07.685Z,5.30
2023-12-18T11:05:40.038Z,5.40
2023-12-18T11:08:08.474Z,5.40
2023-12-18T11:10:41.544Z,5.50
2023-12-18T11:13:27.630Z,5.50
2023-12-18T11:16:09.693Z,5.60
2023-12-18T11:18:49.906Z,5.60
2023-12-18T11:21:18.846Z,5.60
2023-12-18T11:24:01.054Z,5.70
2023-12-18T11:26:34.389Z,5.60
2023-12-18T11:29:26.064Z,5.70
2023-12-18T11:31:56.978Z,5.70
2023-12-18T11:34:25.734Z,5.70
2023-12-18T11:36:55.467Z,5.70
2023-12-18T11:39:25.038Z,5.70
2023-12-18T11:41:54.436Z,5.80
2023-12-18T11:44:28.971Z,5.70
2023-12-18T11:46:59.884Z,5.80
2023-12-18T11:49:28.253Z,5.80
2023-12-18T11:52:00.728Z,5.90
2023-12-18T11:54:29.495Z,5.90
2023-12-18T11:56:58.785Z,5.90
2023-12-18T11:59:27.683Z,5.90
2023-12-18T12:01:56.643Z,5.90
2023-12-18T12:04:27.917Z,6.00
2023-12-18T12:06:57.113Z,6.00
2023-12-18T12:09:25.086Z,6.10
2023-12-18T12:11:53.510Z,6.10
2023-12-18T12:14:21.403Z,6.20
2023-12-18T12:17:03.940Z,6.20
2023-12-18T12:19:35.771Z,6.30
2023-12-18T12:22:04.480Z,6.40
2023-12-18T12:24:34.977Z,6.40
2023-12-18T12:27:03.339Z,6.50
2023-12-18T12:29:32.685Z,6.60
2023-12-18T12:32:07.243Z,6.70
2023-12-18T12:34:43.156Z,6.70
2023-12-18T12:37:13.742Z,6.80
2023-12-18T12:40:00.108Z,6.90
2023-12-18T12:42:29.209Z,6.90
2023-12-18T12:44:57.478Z,7.10
2023-12-18T12:47:25.364Z,7.20
2023-12-18T12:49:54.936Z,7.30
2023-12-18T12:52:23.000Z,7.50
2023-12-18T12:54:51.944Z,7.70
2023-12-18T12:57:20.596Z,8.00
2023-12-18T12:59:53.524Z,8.50
2023-12-18T13:02:24.126Z,9.00
2023-12-18T13:04:55.465Z,9.40
2023-12-18T13:07:27.520Z,9.90
2023-12-18T13:09:55.997Z,10.20
2023-12-18T13:12:24.088Z,10.60
2023-12-18T13:14:52.832Z,10.80
2023-12-18T13:17:21.589Z,11.10
2023-12-18T13:19:50.164Z,11.30
2023-12-18T13:22:19.948Z,11.40
2023-12-18T13:24:48.626Z,11.40
2023-12-18T13:27:17.293Z,11.50
2023-12-18T13:29:45.150Z,11.60
2023-12-18T13:32:13.118Z,11.70
2023-12-18T13:34:42.099Z,11.70
2023-12-18T13:37:10.636Z,11.70
2023-12-18T13:39:40.149Z,11.70
2023-12-18T13:42:09.268Z,11.60
2023-12-18T13:44:39.838Z,11.50
2023-12-18T13:47:09.017Z,11.40
2023-12-18T13:49:37.368Z,11.30
2023-12-18T13:52:05.545Z,11.30
2023-12-18T13:54:34.446Z,11.10
2023-12-18T13:57:03.848Z,11.00
2023-12-18T13:59:34.615Z,10.90
2023-12-18T14:02:02.997Z,10.80
2023-12-18T14:04:31.154Z,10.60
2023-12-18T14:06:59.385Z,10.60
2023-12-18T14:09:27.575Z,10.50
2023-12-18T14:11:55.994Z,10.40
2023-12-18T14:14:25.744Z,10.40
2023-12-18T14:16:53.797Z,10.40
2023-12-18T14:19:21.814Z,10.30
2023-12-18T14:21:49.818Z,10.20
2023-12-18T14:24:19.430Z,10.10
2023-12-18T14:26:47.966Z,10.10
2023-12-18T14:29:16.901Z,10.30
2023-12-18T14:31:46.540Z,9.90
2023-12-18T14:34:14.660Z,9.80
2023-12-18T14:36:42.707Z,9.80
2023-12-18T14:39:11.024Z,9.80
2023-12-18T14:41:39.321Z,9.70
2023-12-18T14:44:07.540Z,9.60
2023-12-18T14:46:36.229Z,9.40
2023-12-18T14:49:06.132Z,9.30
2023-12-18T14:51:34.400Z,9.10
2023-12-18T14:54:03.766Z,9.00
2023-12-18T14:56:37.245Z,8.80
2023-12-18T14:59:07.672Z,8.70
2023-12-18T15:01:35.643Z,8.60
2023-12-18T15:04:12.506Z,8.50
2023-12-18T15:06:44.179Z,8.40
2023-12-18T15:09:13.832Z,8.30
2023-12-18T15:11:43.304Z,8.20
2023-12-18T15:14:11.893Z,8.20
2023-12-18T15:16:40.090Z,8.00
2023-12-18T15:19:09.946Z,8.00
2023-12-18T15:21:40.052Z,8.00
2023-12-18T15:24:10.133Z,7.90
2023-12-18T15:26:39.645Z,7.80
2023-12-18T15:29:08.008Z,7.80
2023-12-18T15:31:36.238Z,7.70
2023-12-18T15:34:06.845Z,7.70
2023-12-18T15:36:37.276Z,7.60
2023-12-18T15:39:05.558Z,7.60
2023-12-18T15:41:34.331Z,7.50
2023-12-18T15:44:02.568Z,7.50
2023-12-18T15:46:30.392Z,7.50
2023-12-18T15:48:57.407Z,7.40
2023-12-18T15:51:25.435Z,7.40
2023-12-18T15:53:55.716Z,7.30
2023-12-18T15:56:23.810Z,7.30
2023-12-18T15:58:51.716Z,7.20
2023-12-18T16:01:20.078Z,7.20
2023-12-18T16:03:48.369Z,7.20
2023-12-18T16:06:16.834Z,7.20
2023-12-18T16:08:44.786Z,7.10
2023-12-18T16:11:14.247Z,7.10
2023-12-18T16:13:42.588Z,7.10
2023-12-18T16:16:11.270Z,7.00
2023-12-18T16:18:39.881Z,7.00
2023-12-18T16:21:07.837Z,6.90
2023-12-18T16:23:36.223Z,6.90
2023-12-18T16:26:04.336Z,6.80
2023-12-18T16:28:34.066Z,6.80
2023-12-18T16:31:01.985Z,6.80
2023-12-18T16:33:30.381Z,6.80
2023-12-18T16:35:59.734Z,6.70
2023-12-18T16:38:27.701Z,6.70
2023-12-18T16:40:56.201Z,7.00
2023-12-18T16:43:24.158Z,6.70
2023-12-18T16:46:02.320Z,6.70
2023-12-18T16:48:30.678Z,6.60
2023-12-18T16:50:59.091Z,6.60
2023-12-18T16:53:28.100Z,6.50
2023-12-18T16:55:59.002Z,6.50
2023-12-18T16:58:27.939Z,6.50
2023-12-18T17:00:57.547Z,6.50
2023-12-18T17:03:25.583Z,6.50
2023-12-18T17:05:53.655Z,6.40
2023-12-18T17:08:22.733Z,6.40
2023-12-18T17:10:50.930Z,6.40
2023-12-18T17:13:19.928Z,6.40
2023-12-18T17:15:48.299Z,6.30
2023-12-18T17:18:20.368Z,6.30
2023-12-18T17:20:48.301Z,6.30
2023-12-18T17:23:16.722Z,6.30
2023-12-18T17:25:44.899Z,6.30
2023-12-18T17:28:12.865Z,6.20
2023-12-18T17:30:41.288Z,6.20
2023-12-18T17:33:10.138Z,6.20
2023-12-18T17:35:39.758Z,6.20
2023-12-18T17:38:08.012Z,6.10
2023-12-18T17:40:36.742Z,6.10
2023-12-18T17:43:05.326Z,6.00
2023-12-18T17:45:34.121Z,6.00
2023-12-18T17:48:03.196Z,6.00
2023-12-18T17:50:32.142Z,6.00
2023-12-18T17:53:01.635Z,6.00
2023-12-18T17:55:30.020Z,6.00
2023-12-18T17:57:58.036Z,6.00
2023-12-18T18:00:27.301Z,5.90
2023-12-18T18:02:55.153Z,5.90
2023-12-18T18:05:23.054Z,5.90
2023-12-18T18:07:51.016Z,5.90
2023-12-18T18:10:20.468Z,5.90
2023-12-18T18:12:49.510Z,5.90
2023-12-18T18:15:17.815Z,5.90
2023-12-18T18:17:47.967Z,5.80
2023-12-18T18:20:16.231Z,5.90
2023-12-18T18:22:44.476Z,5.90
2023-12-18T18:25:13.129Z,5.80
2023-12-18T18:27:42.966Z,5.80
2023-12-18T18:30:12.698Z,5.80
2023-12-18T18:32:40.946Z,5.80
2023-12-18T18:35:11.190Z,5.80
2023-12-18T18:37:41.861Z,5.80
2023-12-18T18:40:12.728Z,5.80
2023-12-18T18:42:42.470Z,5.80
2023-12-18T18:45:11.787Z,5.80
2023-12-18T18:47:40.198Z,5.80
2023-12-18T18:50:10.332Z,5.80
2023-12-18T18:52:38.587Z,5.80
2023-12-18T18:55:07.592Z,5.90
2023-12-18T18:57:47.327Z,5.80
2023-12-18T19:00:19.341Z,6.00
2023-12-18T19:02:47.846Z,5.80
2023-12-18T19:05:17.349Z,5.80
2023-12-18T19:07:46.754Z,5.80
2023-12-18T19:10:14.757Z,5.80
2023-12-18T19:12:44.644Z,5.80
2023-12-18T19:15:13.614Z,5.70
2023-12-18T19:17:46.864Z,5.70
2023-12-18T19:20:15.661Z,5.70
2023-12-18T19:22:43.626Z,5.70
2023-12-18T19:25:12.748Z,5.70
2023-12-18T19:27:41.187Z,5.70
2023-12-18T19:30:10.962Z,5.60
2023-12-18T19:32:41.812Z,5.60
2023-12-18T19:35:12.670Z,5.60
2023-12-18T19:37:44.969Z,5.60
2023-12-18T19:40:14.383Z,5.50
2023-12-18T19:42:42.680Z,5.50
2023-12-18T19:45:11.482Z,5.50
2023-12-18T19:47:39.570Z,5.50
2023-12-18T19:50:09.055Z,5.50
2023-12-18T19:52:40.632Z,5.60
2023-12-18T19:55:09.121Z,5.60
2023-12-18T19:57:38.891Z,5.60
2023-12-18T20:00:09.575Z,5.60
2023-12-18T20:02:37.888Z,5.50
2023-12-18T20:05:07.513Z,5.50
2023-12-18T20:07:36.943Z,5.50
2023-12-18T20:10:07.587Z,5.50
2023-12-18T20:12:36.118Z,5.50
2023-12-18T20:15:04.577Z,5.50
2023-12-18T20:17:32.536Z,5.50
2023-12-18T20:20:00.654Z,5.40
2023-12-18T20:22:31.523Z,5.40
2023-12-18T20:24:59.636Z,5.30
2023-12-18T20:27:29.440Z,5.30
2023-12-18T20:29:57.352Z,5.30
2023-12-18T20:32:25.424Z,5.30
2023-12-18T20:34:53.683Z,5.30
2023-12-18T20:37:22.934Z,5.30
2023-12-18T20:39:50.887Z,5.30
2023-12-18T20:42:19.096Z,5.30
2023-12-18T20:44:48.542Z,5.30
2023-12-18T20:47:16.549Z,5.30
2023-12-18T20:49:44.543Z,5.30
2023-12-18T20:52:12.548Z,5.30
2023-12-18T20:54:40.852Z,5.30
2023-12-18T20:57:08.986Z,5.20
2023-12-18T20:59:42.363Z,5.30
2023-12-18T21:02:12.185Z,5.30
2023-12-18T21:04:40.543Z,5.20
2023-12-18T21:07:09.259Z,5.20
2023-12-18T21:09:38.536Z,5.20
2023-12-18T21:12:07.411Z,5.20
2023-12-18T21:14:36.107Z,5.20
2023-12-18T21:17:04.736Z,5.10
2023-12-18T21:19:35.102Z,5.10
2023-12-18T21:22:05.158Z,5.10
2023-12-18T21:24:35.772Z,5.10
2023-12-18T21:27:03.785Z,5.00
2023-12-18T21:29:33.124Z,5.00
2023-12-18T21:32:01.246Z,5.00
2023-12-18T21:34:30.295Z,5.00
2023-12-18T21:36:59.946Z,4.90
2023-12-18T21:39:28.045Z,4.90
2023-12-18T21:41:56.069Z,4.90
2023-12-18T21:44:24.704Z,4.90
2023-12-18T21:46:53.016Z,5.00
2023-12-18T21:49:21.138Z,5.00
2023-12-18T21:51:49.365Z,5.00
2023-12-18T21:54:21.698Z,5.00
2023-12-18T21:56:52.545Z,5.00
2023-12-18T21:59:22.230Z,4.90
2023-12-18T22:01:50.413Z,5.00
2023-12-18T22:04:20.753Z,5.00
2023-12-18T22:06:49.933Z,5.00
2023-12-18T22:09:19.227Z,5.00
2023-12-18T22:11:47.130Z,5.00
2023-12-18T22:14:15.148Z,5.00
2023-12-18T22:16:43.022Z,5.00
2023-12-18T22:19:11.535Z,5.00
2023-12-18T22:21:39.592Z,5.00
2023-12-18T22:24:08.792Z,5.00
2023-12-18T22:26:38.413Z,5.00
2023-12-18T22:29:06.389Z,4.90
2023-12-18T22:31:35.041Z,4.90
2023-12-18T22:34:03.139Z,4.90
2023-12-18T22:36:33.386Z,4.80
2023-12-18T22:39:05.923Z,4.80
2023-12-18T22:41:41.836Z,4.80
2023-12-18T22:44:10.304Z,4.80
2023-12-18T22:46:39.947Z,4.80
2023-12-18T22:49:08.459Z,4.80
2023-12-18T22:51:36.624Z,4.80
2023-12-18T22:54:05.186Z,4.70
2023-12-18T22:56:33.367Z,4.70
2023-12-18T22:59:03.162Z,4.80
2023-12-18T23:01:32.136Z,4.70
2023-12-18T23:04:02.332Z,4.70
2023-12-18T23:06:30.746Z,4.70
2023-12-18T23:08:59.028Z,4.70
2023-12-18T23:11:27.449Z,4.70
2023-12-18T23:13:56.668Z,4.70
2023-12-18T23:16:26.406Z,4.70
2023-12-18T23:18:54.525Z,4.60
2023-12-18T23:21:22.928Z,4.60
2023-12-18T23:23:56.229Z,4.60
2023-12-18T23:26:24.493Z,4.50
2023-12-18T23:28:52.948Z,4.50
2023-12-18T23:31:21.021Z,4.50
2023-12-18T23:33:51.106Z,4.50
2023-12-18T23:36:19.353Z,4.50
2023-12-18T23:38:47.511Z,4.40
2023-12-18T23:41:17.048Z,4.50
2023-12-18T23:43:45.241Z,4.50
2023-12-18T23:46:13.253Z,4.50
2023-12-18T23:48:41.421Z,4.50
2023-12-18T23:51:11.368Z,4.40
2023-12-18T23:53:39.304Z,4.40
2023-12-18T23:56:09.829Z,4.40
2023-12-18T23:58:38.256Z,4.40
